createdAt,value
2023-05-17T00:00:48.073Z,53.46
2023-05-17T00:02:29.458Z,54.42
2023-05-17T00:04:12.923Z,54.37
2023-05-17T00:05:54.362Z,55.03
2023-05-17T00:07:35.768Z,54.58
2023-05-17T00:09:17.216Z,55.46
2023-05-17T00:10:58.544Z,55.41
2023-05-17T00:12:39.898Z,54.94
2023-05-17T00:14:21.230Z,54.60
2023-05-17T00:16:02.564Z,53.94
2023-05-17T00:17:44.019Z,53.36
2023-05-17T00:19:25.450Z,54.31
2023-05-17T00:21:06.833Z,54.32
2023-05-17T00:22:48.146Z,53.83
2023-05-17T00:24:29.493Z,53.47
2023-05-17T00:26:10.829Z,54.09
2023-05-17T00:27:52.145Z,53.86
2023-05-17T00:29:33.534Z,54.51
2023-05-17T00:31:14.869Z,54.42
2023-05-17T00:32:56.193Z,54.55
2023-05-17T00:34:37.560Z,54.90
2023-05-17T00:36:18.865Z,55.43
2023-05-17T00:38:00.174Z,54.56
2023-05-17T00:39:41.585Z,54.66
2023-05-17T00:41:22.901Z,54.47
2023-05-17T00:43:04.226Z,54.89
2023-05-17T00:44:45.594Z,55.07
2023-05-17T00:46:26.938Z,55.56
2023-05-17T00:48:08.408Z,55.58
2023-05-17T00:49:49.852Z,56.05
2023-05-17T00:51:31.171Z,56.58
2023-05-17T00:53:12.528Z,56.21
2023-05-17T00:54:53.880Z,55.72
2023-05-17T00:56:35.204Z,56.14
2023-05-17T00:58:16.590Z,55.42
2023-05-17T00:59:57.939Z,54.67
2023-05-17T01:01:39.363Z,55.23
2023-05-17T01:03:20.855Z,54.14
2023-05-17T01:05:02.389Z,53.96
2023-05-17T01:06:43.772Z,53.40
2023-05-17T01:08:25.108Z,53.14
2023-05-17T01:10:06.460Z,52.85
2023-05-17T01:11:47.788Z,53.25
2023-05-17T01:13:29.108Z,53.14
2023-05-17T01:15:10.490Z,52.55
2023-05-17T01:16:51.904Z,52.79
2023-05-17T01:18:33.409Z,52.58
2023-05-17T01:20:15.013Z,52.55
2023-05-17T01:21:56.405Z,52.96
2023-05-17T01:23:37.729Z,53.04
2023-05-17T01:25:19.066Z,54.13
2023-05-17T01:27:00.413Z,54.33
2023-05-17T01:28:41.795Z,54.65
2023-05-17T01:30:23.236Z,54.82
2023-05-17T01:32:04.599Z,54.74
2023-05-17T01:33:46.162Z,54.58
2023-05-17T01:35:27.824Z,54.71
2023-05-17T01:37:09.366Z,55.85
2023-05-17T01:38:50.718Z,55.46
2023-05-17T01:40:32.048Z,55.03
2023-05-17T01:42:13.364Z,54.90
2023-05-17T01:43:54.747Z,54.77
2023-05-17T01:45:36.201Z,54.61
2023-05-17T01:47:17.516Z,53.91
2023-05-17T01:48:58.873Z,54.20
2023-05-17T01:50:40.269Z,53.64
2023-05-17T01:52:21.634Z,53.38
2023-05-17T01:54:03.109Z,53.60
2023-05-17T01:55:44.463Z,53.47
2023-05-17T01:57:25.814Z,53.89
2023-05-17T01:59:07.171Z,54.05
2023-05-17T02:00:48.509Z,54.86
2023-05-17T02:02:29.920Z,54.77
2023-05-17T02:04:11.342Z,55.69
2023-05-17T02:05:52.729Z,55.77
2023-05-17T02:07:34.186Z,56.43
2023-05-17T02:09:15.553Z,56.31
2023-05-17T02:10:56.909Z,56.91
2023-05-17T02:12:38.304Z,56.82
2023-05-17T02:14:19.690Z,55.50
2023-05-17T02:16:01.095Z,54.79
2023-05-17T02:17:42.584Z,54.21
2023-05-17T02:19:24.034Z,55.00
2023-05-17T02:21:05.437Z,55.09
2023-05-17T02:22:46.802Z,55.33
2023-05-17T02:24:28.246Z,54.96
2023-05-17T02:26:09.574Z,55.39
2023-05-17T02:27:51.057Z,55.57
2023-05-17T02:29:32.401Z,55.23
2023-05-17T02:31:13.851Z,55.54
2023-05-17T02:32:55.231Z,55.92
2023-05-17T02:34:36.709Z,56.22
2023-05-17T02:36:18.048Z,55.89
2023-05-17T02:37:59.378Z,56.01
2023-05-17T02:39:40.707Z,55.35
2023-05-17T02:41:22.008Z,55.24
2023-05-17T02:43:03.517Z,55.02
2023-05-17T02:44:44.855Z,55.52
2023-05-17T02:46:26.171Z,55.79
2023-05-17T02:48:07.538Z,55.71
2023-05-17T02:49:48.873Z,56.13
2023-05-17T02:51:30.229Z,56.46
2023-05-17T02:53:11.569Z,55.99
2023-05-17T02:54:52.891Z,55.61
2023-05-17T02:56:34.256Z,56.57
2023-05-17T02:58:15.582Z,56.40
2023-05-17T02:59:56.915Z,56.62
2023-05-17T03:01:38.285Z,56.09
2023-05-17T03:03:19.795Z,56.38
2023-05-17T03:05:01.186Z,56.02
2023-05-17T03:06:42.520Z,55.54
2023-05-17T03:08:23.884Z,55.97
2023-05-17T03:10:05.233Z,55.81
2023-05-17T03:11:46.600Z,55.56
2023-05-17T03:13:27.952Z,56.02
2023-05-17T03:15:09.250Z,56.66
2023-05-17T03:16:50.655Z,57.23
2023-05-17T03:18:32.134Z,56.08
2023-05-17T03:20:13.602Z,55.36
2023-05-17T03:21:54.955Z,55.11
2023-05-17T03:23:36.409Z,53.99
2023-05-17T03:25:17.765Z,54.66
2023-05-17T03:26:59.129Z,54.70
2023-05-17T03:28:40.504Z,54.70
2023-05-17T03:30:21.876Z,54.28
2023-05-17T03:32:03.231Z,54.96
2023-05-17T03:33:44.689Z,55.32
2023-05-17T03:35:26.207Z,55.70
2023-05-17T03:37:07.569Z,55.92
2023-05-17T03:38:48.883Z,57.13
2023-05-17T03:40:30.207Z,56.77
2023-05-17T03:42:11.529Z,57.28
2023-05-17T03:43:52.874Z,57.69
2023-05-17T03:45:34.270Z,57.81
2023-05-17T03:47:15.603Z,56.54
2023-05-17T03:48:57.042Z,56.64
2023-05-17T03:50:38.386Z,56.55
2023-05-17T03:52:19.700Z,55.88
2023-05-17T03:54:01.150Z,55.58
2023-05-17T03:55:42.493Z,55.05
2023-05-17T03:57:23.827Z,55.85
2023-05-17T03:59:05.205Z,55.10
2023-05-17T04:00:46.531Z,55.40
2023-05-17T04:02:27.917Z,55.25
2023-05-17T04:04:09.338Z,55.61
2023-05-17T04:05:50.691Z,56.86
2023-05-17T04:07:32.017Z,56.50
2023-05-17T04:09:13.357Z,56.04
2023-05-17T04:10:54.705Z,55.61
2023-05-17T04:12:36.199Z,56.21
2023-05-17T04:14:26.357Z,55.33
2023-05-17T04:16:10.570Z,55.53
2023-05-17T04:17:52.109Z,55.60
2023-05-17T04:19:33.540Z,56.66
2023-05-17T04:21:14.921Z,56.60
2023-05-17T04:22:56.280Z,57.48
2023-05-17T04:24:37.628Z,57.29
2023-05-17T04:26:18.939Z,56.86
2023-05-17T04:28:00.286Z,56.70
2023-05-17T04:29:41.657Z,56.53
2023-05-17T04:31:22.987Z,56.74
2023-05-17T04:33:04.440Z,56.90
2023-05-17T04:34:45.826Z,56.68
2023-05-17T04:36:27.197Z,56.88
2023-05-17T04:38:08.511Z,57.10
2023-05-17T04:39:49.866Z,56.90
2023-05-17T04:41:31.182Z,56.90
2023-05-17T04:43:12.487Z,57.03
2023-05-17T04:44:53.803Z,56.53
2023-05-17T04:46:35.116Z,56.88
2023-05-17T04:48:16.599Z,57.15
2023-05-17T04:49:58.014Z,56.14
2023-05-17T04:51:39.338Z,55.67
2023-05-17T04:53:20.694Z,54.82
2023-05-17T04:55:02.079Z,54.40
2023-05-17T04:56:43.420Z,54.05
2023-05-17T04:58:24.752Z,53.05
2023-05-17T05:00:06.099Z,53.26
2023-05-17T05:01:47.414Z,52.82
2023-05-17T05:03:28.763Z,52.43
2023-05-17T05:05:10.344Z,51.89
2023-05-17T05:06:51.809Z,51.42
2023-05-17T05:08:33.196Z,50.54
2023-05-17T05:10:14.542Z,51.09
2023-05-17T05:11:55.929Z,52.18
2023-05-17T05:13:37.243Z,52.55
2023-05-17T05:15:19.447Z,52.49
2023-05-17T05:17:00.798Z,52.68
2023-05-17T05:18:42.211Z,52.52
2023-05-17T05:20:24.657Z,52.04
2023-05-17T05:22:07.823Z,51.70
2023-05-17T05:23:49.174Z,52.25
2023-05-17T05:25:30.838Z,52.13
2023-05-17T05:27:12.416Z,51.78
2023-05-17T05:28:53.752Z,51.95
2023-05-17T05:30:35.090Z,52.49
2023-05-17T05:32:16.454Z,52.87
2023-05-17T05:33:57.832Z,52.79
2023-05-17T05:35:39.187Z,52.89
2023-05-17T05:37:20.519Z,51.80
2023-05-17T05:39:01.862Z,50.53
2023-05-17T05:40:43.191Z,50.94
2023-05-17T05:42:24.523Z,51.38
2023-05-17T05:44:05.865Z,51.34
2023-05-17T05:45:47.254Z,52.19
2023-05-17T05:47:28.623Z,53.19
2023-05-17T05:49:10.027Z,54.06
2023-05-17T05:50:51.466Z,52.11
2023-05-17T05:52:32.768Z,50.88
2023-05-17T05:54:14.273Z,50.25
2023-05-17T05:55:55.619Z,50.10
2023-05-17T05:57:36.993Z,50.42
2023-05-17T05:59:18.311Z,50.78
2023-05-17T06:00:59.704Z,50.86
2023-05-17T06:02:41.045Z,50.72
2023-05-17T06:04:29.703Z,49.45
2023-05-17T06:06:18.085Z,49.16
2023-05-17T06:07:59.472Z,48.88
2023-05-17T06:09:40.821Z,49.97
2023-05-17T06:11:22.216Z,52.55
2023-05-17T06:13:03.544Z,53.90
2023-05-17T06:14:44.892Z,55.65
2023-05-17T06:16:26.241Z,56.72
2023-05-17T06:18:07.582Z,55.77
2023-05-17T06:19:48.976Z,57.58
2023-05-17T06:21:30.374Z,57.80
2023-05-17T06:23:11.682Z,58.01
2023-05-17T06:24:53.042Z,58.37
2023-05-17T06:26:34.428Z,58.49
2023-05-17T06:28:15.864Z,57.45
2023-05-17T06:29:57.261Z,57.50
2023-05-17T06:31:38.601Z,56.75
2023-05-17T06:33:20.018Z,56.16
2023-05-17T06:35:01.369Z,55.41
2023-05-17T06:36:42.833Z,54.78
2023-05-17T06:38:24.160Z,54.41
2023-05-17T06:40:14.878Z,53.46
2023-05-17T06:41:57.381Z,52.16
2023-05-17T06:43:38.694Z,52.83
2023-05-17T06:45:20.032Z,50.78
2023-05-17T06:47:01.387Z,51.92
2023-05-17T06:48:42.965Z,53.20
2023-05-17T06:50:24.413Z,52.07
2023-05-17T06:52:05.800Z,51.96
2023-05-17T06:53:50.090Z,49.87
2023-05-17T06:55:31.998Z,47.95
2023-05-17T06:57:13.450Z,49.17
2023-05-17T06:58:55.316Z,50.64
2023-05-17T07:00:39.653Z,47.70
2023-05-17T07:02:21.011Z,48.34
2023-05-17T07:04:02.457Z,47.00
2023-05-17T07:05:43.913Z,49.13
2023-05-17T07:07:25.291Z,48.51
2023-05-17T07:09:06.653Z,46.84
2023-05-17T07:10:47.979Z,49.49
2023-05-17T07:12:29.328Z,49.26
2023-05-17T07:14:10.681Z,47.46
2023-05-17T07:15:51.996Z,49.75
2023-05-17T07:17:33.417Z,49.20
2023-05-17T07:19:15.043Z,51.44
2023-05-17T07:20:56.420Z,52.01
2023-05-17T07:22:37.786Z,54.07
2023-05-17T07:24:19.165Z,53.89
2023-05-17T07:26:00.517Z,52.92
2023-05-17T07:27:44.320Z,53.29
2023-05-17T07:29:25.673Z,51.71
2023-05-17T07:31:06.995Z,50.84
2023-05-17T07:32:48.389Z,51.95
2023-05-17T07:34:30.085Z,51.63
2023-05-17T07:36:11.499Z,50.58
2023-05-17T07:37:52.947Z,51.88
2023-05-17T07:39:34.299Z,51.59
2023-05-17T07:41:15.684Z,50.50
2023-05-17T07:42:57.006Z,51.11
2023-05-17T07:44:38.384Z,50.55
2023-05-17T07:46:19.740Z,51.94
2023-05-17T07:48:01.175Z,50.16
2023-05-17T07:49:42.642Z,50.27
2023-05-17T07:51:23.972Z,50.75
2023-05-17T07:53:05.314Z,49.16
2023-05-17T07:54:46.681Z,50.50
2023-05-17T07:56:28.020Z,52.05
2023-05-17T07:58:09.373Z,50.64
2023-05-17T07:59:50.931Z,50.83
2023-05-17T08:01:32.245Z,50.47
2023-05-17T08:03:15.721Z,50.53
2023-05-17T08:04:58.562Z,49.15
2023-05-17T08:06:39.933Z,48.36
2023-05-17T08:08:21.353Z,49.57
2023-05-17T08:10:02.737Z,48.43
2023-05-17T08:11:44.079Z,49.46
2023-05-17T08:13:25.422Z,49.59
2023-05-17T08:15:06.749Z,49.66
2023-05-17T08:16:48.090Z,50.31
2023-05-17T08:18:29.514Z,50.75
2023-05-17T08:20:11.037Z,49.94
2023-05-17T08:21:52.392Z,48.29
2023-05-17T08:23:33.782Z,49.45
2023-05-17T08:25:15.142Z,47.96
2023-05-17T08:26:56.464Z,46.07
2023-05-17T08:28:37.790Z,44.56
2023-05-17T08:30:28.637Z,45.85
2023-05-17T08:32:10.717Z,45.63
2023-05-17T08:33:52.076Z,45.44
2023-05-17T08:35:33.628Z,46.63
2023-05-17T08:37:15.216Z,45.69
2023-05-17T08:38:56.610Z,45.08
2023-05-17T08:40:37.968Z,44.21
2023-05-17T08:42:19.497Z,45.69
2023-05-17T08:44:00.890Z,44.11
2023-05-17T08:45:42.233Z,44.70
2023-05-17T08:47:23.598Z,45.38
2023-05-17T08:49:05.019Z,46.42
2023-05-17T08:50:46.442Z,46.93
2023-05-17T08:52:27.786Z,46.77
2023-05-17T08:54:09.157Z,46.37
2023-05-17T08:55:50.505Z,45.14
2023-05-17T08:57:31.829Z,43.81
2023-05-17T08:59:13.162Z,45.65
2023-05-17T09:00:54.517Z,45.80
2023-05-17T09:02:35.954Z,45.37
2023-05-17T09:04:17.335Z,45.71
2023-05-17T09:05:58.834Z,47.66
2023-05-17T09:07:40.191Z,46.03
2023-05-17T09:09:21.501Z,47.11
2023-05-17T09:11:02.828Z,46.92
2023-05-17T09:12:44.193Z,47.47
2023-05-17T09:14:25.544Z,48.72
2023-05-17T09:16:06.903Z,48.53
2023-05-17T09:17:48.320Z,48.79
2023-05-17T09:19:29.832Z,48.04
2023-05-17T09:21:11.263Z,49.25
2023-05-17T09:22:52.651Z,50.74
2023-05-17T09:24:34.022Z,49.84
2023-05-17T09:26:15.340Z,51.05
2023-05-17T09:27:56.666Z,49.77
2023-05-17T09:29:37.988Z,51.31
2023-05-17T09:31:19.323Z,51.11
2023-05-17T09:33:00.737Z,49.84
2023-05-17T09:34:42.278Z,49.54
2023-05-17T09:36:23.780Z,49.80
2023-05-17T09:38:05.160Z,51.28
2023-05-17T09:39:46.555Z,51.33
2023-05-17T09:41:27.925Z,50.60
2023-05-17T09:43:09.315Z,51.66
2023-05-17T09:44:50.688Z,51.27
2023-05-17T09:46:32.019Z,51.03
2023-05-17T09:48:13.414Z,52.77
2023-05-17T09:49:54.779Z,50.98
2023-05-17T09:51:36.122Z,51.04
2023-05-17T09:53:17.466Z,50.57
2023-05-17T09:54:58.803Z,50.40
2023-05-17T09:56:40.203Z,50.27
2023-05-17T09:58:21.572Z,49.49
2023-05-17T10:00:02.937Z,49.06
2023-05-17T10:01:44.301Z,48.19
2023-05-17T10:03:25.740Z,47.15
2023-05-17T10:05:07.128Z,47.89
2023-05-17T10:06:51.687Z,45.63
2023-05-17T10:08:33.810Z,45.76
2023-05-17T10:10:15.147Z,46.00
2023-05-17T10:11:56.491Z,45.42
2023-05-17T10:13:37.840Z,44.08
2023-05-17T10:15:19.186Z,45.56
2023-05-17T10:17:00.545Z,43.18
2023-05-17T10:18:41.985Z,42.33
2023-05-17T10:20:23.369Z,42.20
2023-05-17T10:22:21.235Z,43.27
2023-05-17T10:24:04.298Z,42.82
2023-05-17T10:25:45.715Z,45.03
2023-05-17T10:27:27.172Z,43.96
2023-05-17T10:29:08.615Z,44.01
2023-05-17T10:30:49.951Z,42.26
2023-05-17T10:32:31.393Z,42.77
2023-05-17T10:34:12.818Z,44.39
2023-05-17T10:35:54.218Z,41.07
2023-05-17T10:37:35.580Z,41.41
2023-05-17T10:39:16.912Z,40.71
2023-05-17T10:40:59.027Z,39.97
2023-05-17T10:42:40.965Z,42.06
2023-05-17T10:44:22.544Z,41.79
2023-05-17T10:46:03.898Z,40.22
2023-05-17T10:47:45.258Z,40.73
2023-05-17T10:49:26.878Z,41.28
2023-05-17T10:51:10.712Z,41.71
2023-05-17T10:52:52.382Z,41.86
2023-05-17T10:54:33.804Z,41.69
2023-05-17T10:56:15.383Z,40.03
2023-05-17T10:57:56.974Z,40.46
2023-05-17T10:59:40.833Z,40.93
2023-05-17T11:01:22.188Z,42.88
2023-05-17T11:03:03.577Z,43.46
2023-05-17T11:04:45.061Z,42.61
2023-05-17T11:06:26.501Z,43.68
2023-05-17T11:08:08.570Z,42.46
2023-05-17T11:09:50.315Z,43.55
2023-05-17T11:11:31.794Z,44.39
2023-05-17T11:13:13.319Z,43.03
2023-05-17T11:14:54.996Z,42.83
2023-05-17T11:16:39.666Z,42.56
2023-05-17T11:18:30.456Z,41.44
2023-05-17T11:20:16.868Z,40.84
2023-05-17T11:21:58.537Z,41.38
2023-05-17T11:23:39.907Z,41.22
2023-05-17T11:25:21.268Z,41.85
2023-05-17T11:27:02.605Z,40.96
2023-05-17T11:28:43.951Z,41.55
2023-05-17T11:30:26.155Z,41.35
2023-05-17T11:32:07.897Z,40.69
2023-05-17T11:33:49.320Z,40.13
2023-05-17T11:35:30.711Z,42.44
2023-05-17T11:37:12.040Z,43.14
2023-05-17T11:39:01.546Z,40.22
2023-05-17T11:40:49.709Z,40.91
2023-05-17T11:42:31.386Z,40.35
2023-05-17T11:44:12.824Z,41.58
2023-05-17T11:45:54.441Z,42.91
2023-05-17T11:47:35.959Z,41.32
2023-05-17T11:49:27.032Z,42.06
2023-05-17T11:51:16.200Z,41.44
2023-05-17T11:52:57.580Z,40.64
2023-05-17T11:54:39.809Z,43.75
2023-05-17T11:56:26.509Z,42.77
2023-05-17T11:58:13.922Z,43.00
2023-05-17T11:59:55.432Z,44.24
2023-05-17T12:01:37.308Z,43.31
2023-05-17T12:03:18.812Z,43.11
2023-05-17T12:05:00.493Z,42.79
2023-05-17T12:06:42.308Z,42.49
2023-05-17T12:08:23.932Z,42.75
2023-05-17T12:10:05.428Z,40.74
2023-05-17T12:11:46.897Z,43.93
2023-05-17T12:13:28.399Z,42.83
2023-05-17T12:15:09.743Z,43.44
2023-05-17T12:16:51.217Z,41.60
2023-05-17T12:18:32.651Z,41.87
2023-05-17T12:20:14.835Z,40.76
2023-05-17T12:21:56.451Z,41.92
2023-05-17T12:23:37.799Z,41.43
2023-05-17T12:25:19.186Z,41.95
2023-05-17T12:27:00.580Z,40.79
2023-05-17T12:28:41.898Z,42.61
2023-05-17T12:30:23.265Z,43.95
2023-05-17T12:32:05.303Z,42.67
2023-05-17T12:33:47.241Z,43.14
2023-05-17T12:35:28.624Z,43.83
2023-05-17T12:37:09.939Z,45.38
2023-05-17T12:38:51.607Z,43.87
2023-05-17T12:40:33.142Z,44.55
2023-05-17T12:42:14.485Z,44.84
2023-05-17T12:44:06.052Z,43.55
2023-05-17T12:45:55.021Z,44.10
2023-05-17T12:47:36.435Z,44.40
2023-05-17T12:49:18.025Z,44.74
2023-05-17T12:50:59.763Z,45.68
2023-05-17T12:52:41.214Z,46.09
2023-05-17T12:54:22.782Z,43.83
2023-05-17T12:56:04.285Z,43.68
2023-05-17T12:57:45.588Z,44.20
2023-05-17T12:59:27.189Z,43.30
2023-05-17T13:01:08.813Z,42.34
2023-05-17T13:02:50.266Z,41.68
2023-05-17T13:04:31.764Z,42.25
2023-05-17T13:06:13.622Z,41.01
2023-05-17T13:07:55.326Z,41.04
2023-05-17T13:09:36.782Z,40.72
2023-05-17T13:11:18.188Z,39.57
2023-05-17T13:12:59.760Z,41.40
2023-05-17T13:14:44.413Z,40.71
2023-05-17T13:16:27.010Z,41.07
2023-05-17T13:18:08.538Z,41.05
2023-05-17T13:19:50.276Z,41.03
2023-05-17T13:21:31.958Z,41.75
2023-05-17T13:23:13.476Z,42.60
2023-05-17T13:24:54.841Z,43.07
2023-05-17T13:26:36.434Z,43.37
2023-05-17T13:28:18.139Z,43.38
2023-05-17T13:29:59.674Z,43.91
2023-05-17T13:31:41.226Z,46.62
2023-05-17T13:33:22.641Z,44.31
2023-05-17T13:35:04.041Z,44.93
2023-05-17T13:36:45.412Z,43.62
2023-05-17T13:38:26.781Z,43.43
2023-05-17T13:40:08.165Z,43.76
2023-05-17T13:41:49.507Z,44.61
2023-05-17T13:43:30.845Z,44.04
2023-05-17T13:45:12.215Z,44.39
2023-05-17T13:46:53.581Z,44.33
2023-05-17T13:48:35.040Z,44.74
2023-05-17T13:50:16.540Z,44.70
2023-05-17T13:51:57.909Z,45.25
2023-05-17T13:53:39.228Z,44.52
2023-05-17T13:55:20.669Z,44.44
2023-05-17T13:57:02.410Z,45.32
2023-05-17T13:58:44.084Z,44.63
2023-05-17T14:00:25.434Z,43.56
2023-05-17T14:02:06.836Z,44.20
2023-05-17T14:03:48.254Z,44.32
2023-05-17T14:05:29.673Z,45.43
2023-05-17T14:07:11.020Z,44.10
2023-05-17T14:08:52.402Z,45.90
2023-05-17T14:10:33.763Z,44.04
2023-05-17T14:12:15.133Z,43.79
2023-05-17T14:13:56.498Z,44.12
2023-05-17T14:15:37.860Z,43.44
2023-05-17T14:17:19.448Z,43.54
2023-05-17T14:19:03.531Z,44.01
2023-05-17T14:20:45.936Z,44.76
2023-05-17T14:22:27.252Z,43.61
2023-05-17T14:24:08.617Z,43.20
2023-05-17T14:25:50.191Z,43.08
2023-05-17T14:27:31.788Z,43.47
2023-05-17T14:29:13.307Z,43.17
2023-05-17T14:30:54.695Z,45.01
2023-05-17T14:32:36.225Z,44.67
2023-05-17T14:34:17.680Z,44.49
2023-05-17T14:35:59.163Z,43.81
2023-05-17T14:37:40.522Z,44.83
2023-05-17T14:39:21.914Z,44.49
2023-05-17T14:41:03.321Z,43.83
2023-05-17T14:42:44.761Z,44.16
2023-05-17T14:44:26.089Z,45.04
2023-05-17T14:46:07.450Z,45.74
2023-05-17T14:47:48.885Z,45.27
2023-05-17T14:49:30.231Z,46.32
2023-05-17T14:51:11.589Z,46.49
2023-05-17T14:52:53.000Z,44.99
2023-05-17T14:54:34.349Z,45.74
2023-05-17T14:56:15.719Z,45.89
2023-05-17T14:57:57.738Z,45.46
2023-05-17T14:59:39.362Z,45.75
2023-05-17T15:01:20.789Z,47.26
2023-05-17T15:03:02.545Z,47.07
2023-05-17T15:04:44.290Z,46.42
2023-05-17T15:06:25.796Z,46.39
2023-05-17T15:08:07.156Z,46.36
2023-05-17T15:09:48.541Z,47.16
2023-05-17T15:11:30.213Z,46.52
2023-05-17T15:13:12.042Z,47.24
2023-05-17T15:14:53.580Z,46.25
2023-05-17T15:16:35.073Z,47.34
2023-05-17T15:18:16.857Z,47.47
2023-05-17T15:19:59.542Z,46.09
2023-05-17T15:21:41.302Z,45.38
2023-05-17T15:23:22.708Z,46.28
2023-05-17T15:25:04.074Z,47.05
2023-05-17T15:26:45.461Z,47.38
2023-05-17T15:28:27.041Z,46.45
2023-05-17T15:30:09.497Z,46.33
2023-05-17T15:31:51.684Z,45.97
2023-05-17T15:33:33.056Z,46.40
2023-05-17T15:35:14.495Z,46.58
2023-05-17T15:36:55.870Z,46.92
2023-05-17T15:38:37.853Z,46.72
2023-05-17T15:40:19.413Z,46.56
2023-05-17T15:42:00.800Z,46.96
2023-05-17T15:43:42.130Z,47.09
2023-05-17T15:45:23.517Z,46.29
2023-05-17T15:47:05.220Z,46.02
2023-05-17T15:48:46.631Z,46.22
2023-05-17T15:50:27.985Z,46.36
2023-05-17T15:52:09.347Z,46.62
2023-05-17T15:53:51.498Z,47.26
2023-05-17T15:55:33.263Z,47.55
2023-05-17T15:57:14.757Z,47.82
2023-05-17T15:58:56.281Z,47.78
2023-05-17T16:00:37.829Z,47.94
2023-05-17T16:02:19.155Z,46.67
2023-05-17T16:04:00.672Z,48.15
2023-05-17T16:05:42.107Z,48.07
2023-05-17T16:07:23.507Z,48.75
2023-05-17T16:09:04.825Z,48.75
2023-05-17T16:10:46.769Z,48.38
2023-05-17T16:12:28.640Z,48.77
2023-05-17T16:14:10.298Z,48.70
2023-05-17T16:15:51.732Z,48.08
2023-05-17T16:17:33.146Z,49.22
2023-05-17T16:19:14.881Z,49.30
2023-05-17T16:20:56.440Z,50.85
2023-05-17T16:22:38.017Z,51.33
2023-05-17T16:24:22.768Z,50.80
2023-05-17T16:26:04.315Z,50.76
2023-05-17T16:27:47.319Z,50.86
2023-05-17T16:29:29.011Z,50.61
2023-05-17T16:31:10.459Z,50.13
2023-05-17T16:32:52.099Z,51.44
2023-05-17T16:34:33.697Z,51.81
2023-05-17T16:36:15.058Z,50.90
2023-05-17T16:37:56.397Z,50.73
2023-05-17T16:39:38.032Z,51.16
2023-05-17T16:41:19.633Z,51.88
2023-05-17T16:43:00.954Z,52.01
2023-05-17T16:44:42.365Z,51.76
2023-05-17T16:46:23.704Z,52.16
2023-05-17T16:48:05.111Z,52.49
2023-05-17T16:49:46.437Z,53.88
2023-05-17T16:51:27.894Z,54.06
2023-05-17T16:53:09.842Z,53.59
2023-05-17T16:54:57.031Z,52.31
2023-05-17T16:56:38.589Z,52.22
2023-05-17T16:58:20.234Z,51.81
2023-05-17T17:00:01.934Z,51.85
2023-05-17T17:01:43.801Z,53.57
2023-05-17T17:03:25.386Z,52.17
2023-05-17T17:05:06.825Z,51.77
2023-05-17T17:06:48.176Z,51.79
2023-05-17T17:08:29.519Z,51.42
2023-05-17T17:10:10.896Z,52.88
2023-05-17T17:11:52.263Z,52.98
2023-05-17T17:13:33.627Z,54.22
2023-05-17T17:15:15.242Z,53.95
2023-05-17T17:16:59.498Z,54.61
2023-05-17T17:18:42.794Z,54.04
2023-05-17T17:20:24.510Z,53.95
2023-05-17T17:22:06.194Z,53.62
2023-05-17T17:23:49.776Z,54.62
2023-05-17T17:25:35.839Z,53.59
2023-05-17T17:27:17.687Z,54.01
2023-05-17T17:28:59.568Z,54.22
2023-05-17T17:30:41.517Z,53.89
2023-05-17T17:32:22.969Z,54.12
2023-05-17T17:34:05.383Z,54.35
2023-05-17T17:35:46.830Z,54.03
2023-05-17T17:37:28.146Z,54.31
2023-05-17T17:39:10.372Z,55.13
2023-05-17T17:40:51.786Z,55.10
2023-05-17T17:42:37.656Z,53.83
2023-05-17T17:44:19.285Z,53.82
2023-05-17T17:46:00.695Z,54.02
2023-05-17T17:47:42.100Z,54.68
2023-05-17T17:49:23.573Z,54.10
2023-05-17T17:51:04.891Z,54.16
2023-05-17T17:52:48.960Z,54.68
2023-05-17T17:54:45.201Z,54.00
2023-05-17T17:56:27.609Z,53.62
2023-05-17T17:58:09.974Z,53.64
2023-05-17T17:59:52.753Z,53.99
2023-05-17T18:01:36.319Z,52.86
2023-05-17T18:03:17.735Z,53.59
2023-05-17T18:05:00.120Z,53.04
2023-05-17T18:06:50.607Z,52.77
2023-05-17T18:08:32.008Z,53.09
2023-05-17T18:10:21.905Z,52.36
2023-05-17T18:12:03.573Z,52.64
2023-05-17T18:13:47.750Z,52.77
2023-05-17T18:15:29.319Z,52.59
2023-05-17T18:17:10.894Z,52.74
2023-05-17T18:18:53.147Z,52.38
2023-05-17T18:20:34.505Z,52.36
2023-05-17T18:22:15.906Z,52.68
2023-05-17T18:23:58.030Z,52.86
2023-05-17T18:25:39.389Z,52.03
2023-05-17T18:27:21.649Z,52.03
2023-05-17T18:29:03.471Z,52.62
2023-05-17T18:30:44.878Z,51.87
2023-05-17T18:32:26.260Z,51.99
2023-05-17T18:34:08.226Z,51.98
2023-05-17T18:35:49.573Z,52.58
2023-05-17T18:37:31.134Z,52.12
2023-05-17T18:39:12.836Z,51.64
2023-05-17T18:40:54.174Z,52.00
2023-05-17T18:42:35.675Z,53.06
2023-05-17T18:44:19.265Z,52.32
2023-05-17T18:46:01.572Z,52.71
2023-05-17T18:47:43.053Z,52.48
2023-05-17T18:49:24.468Z,51.98
2023-05-17T18:51:06.079Z,51.92
2023-05-17T18:52:47.572Z,52.04
2023-05-17T18:54:28.930Z,52.26
2023-05-17T18:56:10.286Z,52.08
2023-05-17T18:57:51.632Z,52.65
2023-05-17T18:59:32.966Z,52.33
2023-05-17T19:01:15.123Z,52.08
2023-05-17T19:02:56.702Z,52.23
2023-05-17T19:04:38.171Z,51.94
2023-05-17T19:06:19.761Z,51.80
2023-05-17T19:08:01.296Z,52.00
2023-05-17T19:09:42.654Z,52.54
2023-05-17T19:11:24.023Z,52.29
2023-05-17T19:13:05.373Z,52.16
2023-05-17T19:14:46.693Z,52.83
2023-05-17T19:16:28.039Z,53.43
2023-05-17T19:18:09.448Z,52.38
2023-05-17T19:19:50.843Z,53.05
2023-05-17T19:21:32.232Z,52.47
2023-05-17T19:23:13.835Z,53.14
2023-05-17T19:24:55.447Z,52.45
2023-05-17T19:26:36.989Z,52.31
2023-05-17T19:28:18.579Z,52.62
2023-05-17T19:29:59.918Z,52.20
2023-05-17T19:31:41.564Z,53.14
2023-05-17T19:33:23.158Z,52.93
2023-05-17T19:35:04.552Z,52.52
2023-05-17T19:36:45.921Z,52.31
2023-05-17T19:38:27.261Z,52.79
2023-05-17T19:40:08.689Z,51.98
2023-05-17T19:41:50.039Z,52.59
2023-05-17T19:43:31.389Z,52.28
2023-05-17T19:45:12.733Z,52.83
2023-05-17T19:46:54.217Z,52.80
2023-05-17T19:48:35.579Z,52.22
2023-05-17T19:50:16.982Z,52.03
2023-05-17T19:51:58.486Z,52.04
2023-05-17T19:53:51.529Z,52.53
2023-05-17T19:55:33.597Z,51.71
2023-05-17T19:57:14.969Z,52.14
2023-05-17T19:58:56.360Z,52.20
2023-05-17T20:00:37.722Z,52.61
2023-05-17T20:02:19.323Z,52.19
2023-05-17T20:04:01.492Z,52.78
2023-05-17T20:05:43.128Z,53.36
2023-05-17T20:07:24.513Z,53.38
2023-05-17T20:09:06.104Z,52.74
2023-05-17T20:10:47.760Z,52.74
2023-05-17T20:12:29.309Z,52.49
2023-05-17T20:14:10.682Z,53.48
2023-05-17T20:15:52.208Z,52.59
2023-05-17T20:17:33.812Z,53.59
2023-05-17T20:19:15.230Z,53.13
2023-05-17T20:20:56.613Z,53.79
2023-05-17T20:22:37.948Z,53.53
2023-05-17T20:24:19.320Z,54.59
2023-05-17T20:26:00.648Z,54.91
2023-05-17T20:27:42.057Z,54.46
2023-05-17T20:29:24.071Z,55.40
2023-05-17T20:31:05.438Z,54.91
2023-05-17T20:32:46.778Z,54.51
2023-05-17T20:34:28.217Z,54.63
2023-05-17T20:36:09.552Z,54.64
2023-05-17T20:37:50.853Z,56.79
2023-05-17T20:39:32.199Z,55.98
2023-05-17T20:41:13.517Z,55.80
2023-05-17T20:42:55.162Z,55.02
2023-05-17T20:44:36.824Z,55.25
2023-05-17T20:46:18.162Z,54.50
2023-05-17T20:47:59.629Z,54.75
2023-05-17T20:49:41.078Z,54.89
2023-05-17T20:51:22.450Z,54.84
2023-05-17T20:53:03.822Z,54.51
2023-05-17T20:54:45.196Z,54.30
2023-05-17T20:56:26.823Z,54.51
2023-05-17T20:58:08.201Z,55.54
2023-05-17T20:59:49.566Z,55.06
2023-05-17T21:01:30.907Z,55.87
2023-05-17T21:03:12.315Z,55.34
2023-05-17T21:04:53.784Z,53.96
2023-05-17T21:06:35.146Z,53.14
2023-05-17T21:08:16.690Z,52.30
2023-05-17T21:09:58.497Z,52.38
2023-05-17T21:11:39.920Z,52.02
2023-05-17T21:13:21.290Z,51.85
2023-05-17T21:15:15.919Z,52.93
2023-05-17T21:17:04.281Z,54.27
2023-05-17T21:18:46.058Z,54.75
2023-05-17T21:20:27.601Z,55.92
2023-05-17T21:22:09.184Z,55.59
2023-05-17T21:23:50.623Z,54.50
2023-05-17T21:25:32.245Z,53.94
2023-05-17T21:27:14.047Z,53.33
2023-05-17T21:28:57.087Z,53.31
2023-05-17T21:30:38.559Z,54.13
2023-05-17T21:32:19.976Z,55.46
2023-05-17T21:34:01.412Z,55.35
2023-05-17T21:35:42.973Z,57.00
2023-05-17T21:37:24.447Z,56.37
2023-05-17T21:39:06.095Z,56.22
2023-05-17T21:40:47.724Z,55.63
2023-05-17T21:42:29.096Z,55.36
2023-05-17T21:44:10.486Z,54.68
2023-05-17T21:45:51.821Z,55.33
2023-05-17T21:47:33.193Z,54.81
2023-05-17T21:49:14.587Z,55.45
2023-05-17T21:50:55.915Z,55.56